Time;durP1;ratioP1;P1;durP2;ratioP2;P2;SDS_P1;SDS_P2;PMS_P1;PMS_P2;Temp;Humidity;BMP_temperature;BMP_pressure;BME280_temperature;BME280_humidity;BME280_pressure;Samples;Min_cycle;Max_cycle;Signal;HPM_P1;HPM_P2
2022/11/17 00:00:17;;;;;;;0.80;0.20;;;15.30;99.90;;;;;;5052042;28;20040;-80
2022/11/17 00:02:42;;;;;;;1.23;0.40;;;15.40;99.90;;;;;;5051873;28;20024;-79
2022/11/17 00:05:08;;;;;;;1.67;0.32;;;15.40;99.90;;;;;;5016454;28;1041897;-80
2022/11/17 00:07:34;;;;;;;1.08;0.10;;;15.50;99.90;;;;;;5052967;28;20039;-78
2022/11/17 00:09:59;;;;;;;1.38;0.20;;;15.60;99.90;;;;;;5052765;28;20032;-79
2022/11/17 00:15:09;;;;;;;1.25;0.40;;;15.60;99.90;;;;;;5051759;28;20512;-79
2022/11/17 00:17:34;;;;;;;1.90;0.25;;;15.60;99.90;;;;;;5052640;28;20029;-77
2022/11/17 00:22:44;;;;;;;1.02;0.30;;;15.60;99.90;;;;;;5052664;28;20448;-78
2022/11/17 00:25:10;;;;;;;4.57;0.45;;;15.70;99.90;;;;;;5052712;28;20025;-78
2022/11/17 00:27:35;;;;;;;4.32;0.63;;;15.60;99.90;;;;;;5052677;28;20025;-80
2022/11/17 00:30:01;;;;;;;1.95;0.73;;;15.70;99.90;;;;;;5052793;28;20017;-76
2022/11/17 00:35:10;;;;;;;2.40;0.50;;;15.70;99.90;;;;;;5052546;28;20047;-78
2022/11/17 00:38:14;;;;;;;1.73;0.52;;;15.70;99.90;;;;;;5052563;28;20029;-77
2022/11/17 00:40:23;;;;;;;2.88;0.70;;;15.70;99.90;;;;;;5052413;28;20112;-77
2022/11/17 00:42:49;;;;;;;3.15;0.82;;;15.70;99.90;;;;;;5052502;28;20068;-77
2022/11/17 00:45:15;;;;;;;2.20;0.40;;;15.70;99.90;;;;;;5052551;28;20029;-78
2022/11/17 00:47:42;;;;;;;5.18;0.63;;;15.80;99.90;;;;;;5051223;28;20017;-78
2022/11/17 00:50:08;;;;;;;3.40;0.50;;;15.70;99.90;;;;;;5052410;28;20098;-78
2022/11/17 00:52:34;;;;;;;4.38;0.75;;;15.70;99.90;;;;;;5052402;28;20032;-78
2022/11/17 00:54:59;;;;;;;4.07;0.80;;;15.70;99.90;;;;;;5052373;28;20029;-80
2022/11/17 00:57:25;;;;;;;4.13;1.20;;;15.70;99.90;;;;;;5052333;28;20029;-78
2022/11/17 00:59:50;;;;;;;4.47;0.90;;;15.70;99.90;;;;;;5052341;28;20078;-79
2022/11/17 01:02:16;;;;;;;5.43;0.60;;;15.80;99.90;;;;;;5050528;28;20017;-78
2022/11/17 01:04:41;;;;;;;3.25;0.73;;;15.80;99.90;;;;;;5052087;28;20052;-79
2022/11/17 01:07:07;;;;;;;7.35;1.27;;;15.80;99.90;;;;;;5052386;28;20071;-79
2022/11/17 01:09:33;;;;;;;5.20;0.80;;;15.70;99.90;;;;;;5052245;28;20028;-77
2022/11/17 01:11:58;;;;;;;6.38;1.00;;;15.60;99.90;;;;;;5052237;28;20025;-77
2022/11/17 01:14:26;;;;;;;5.10;1.05;;;15.60;99.90;;;;;;5052227;28;20424;-77
2022/11/17 01:16:53;;;;;;;5.25;1.02;;;15.60;99.90;;;;;;5051608;28;20083;-78
2022/11/17 01:19:20;;;;;;;9.10;0.93;;;15.60;99.90;;;;;;5051071;28;20116;-76
2022/11/17 01:21:46;;;;;;;4.97;0.82;;;15.60;99.90;;;;;;5051888;28;20025;-77
2022/11/17 01:24:14;;;;;;;5.88;1.30;;;15.50;99.90;;;;;;5050955;28;20017;-78
2022/11/17 01:26:41;;;;;;;4.88;0.95;;;15.60;99.80;;;;;;5052792;28;20032;-78
2022/11/17 01:29:08;;;;;;;7.38;1.35;;;15.60;99.70;;;;;;5054557;28;20032;-77
2022/11/17 01:31:37;;;;;;;6.85;1.25;;;15.60;99.60;;;;;;5055244;28;20033;-79
2022/11/17 01:34:02;;;;;;;8.45;1.83;;;15.60;99.90;;;;;;5055706;28;20112;-78
2022/11/17 01:37:17;;;;;;;8.00;1.98;;;15.60;99.60;;;;;;5055615;28;20501;-77
2022/11/17 01:39:16;;;;;;;8.80;1.38;;;15.60;99.50;;;;;;5055367;28;20120;-75
2022/11/17 01:41:42;;;;;;;8.07;1.42;;;15.60;99.40;;;;;;5055494;28;20109;-78
2022/11/17 01:44:47;;;;;;;9.40;2.15;;;15.70;99.40;;;;;;5055457;28;20467;-79
2022/11/17 01:47:35;;;;;;;11.18;1.52;;;15.60;99.50;;;;;;5053961;28;20375;-77
2022/11/17 01:50:07;;;;;;;6.13;1.50;;;15.50;99.50;;;;;;5055473;28;20113;-78
2022/11/17 01:52:35;;;;;;;9.57;1.60;;;15.50;99.40;;;;;;5053864;28;20478;-79
2022/11/17 01:55:02;;;;;;;7.07;1.63;;;15.50;99.30;;;;;;5055273;28;20082;-79
2022/11/17 01:57:34;;;;;;;9.85;1.40;;;15.60;99.20;;;;;;5053833;28;20490;-79
2022/11/17 02:00:04;;;;;;;5.93;1.05;;;15.50;99.20;;;;;;5054921;28;20021;-78
2022/11/17 02:02:31;;;;;;;7.40;1.50;;;15.50;99.20;;;;;;5055155;28;20105;-78
2022/11/17 02:05:13;;;;;;;8.80;1.77;;;15.50;99.30;;;;;;5054917;28;20065;-79
2022/11/17 02:07:39;;;;;;;8.95;1.80;;;15.60;99.30;;;;;;5054942;28;20052;-78
2022/11/17 02:10:06;;;;;;;12.88;1.85;;;15.60;99.30;;;;;;5055042;28;20034;-79
2022/11/17 02:12:34;;;;;;;7.38;1.65;;;15.50;99.30;;;;;;5054889;28;20394;-78
2022/11/17 02:15:01;;;;;;;7.78;1.70;;;15.50;99.50;;;;;;5054229;28;20024;-76
2022/11/17 02:17:34;;;;;;;8.80;2.42;;;15.50;99.40;;;;;;5055034;28;20029;-77
2022/11/17 02:20:02;;;;;;;7.13;1.50;;;15.40;99.60;;;;;;5053499;28;20082;-76
2022/11/17 02:22:53;;;;;;;6.03;1.40;;;15.60;99.30;;;;;;5053686;28;20467;-77
2022/11/17 02:25:28;;;;;;;10.07;2.15;;;15.60;99.40;;;;;;5054597;28;20021;-76
2022/11/17 02:28:29;;;;;;;9.23;1.92;;;15.50;99.50;;;;;;5053013;28;20480;-76
2022/11/17 02:31:22;;;;;;;7.13;1.42;;;15.50;99.50;;;;;;5000403;28;20046;-76
2022/11/17 02:33:54;;;;;;;;;;;15.50;99.50;;;;;;5056302;28;20080;-75
2022/11/17 02:36:32;;;;;;;10.43;1.83;;;15.60;99.50;;;;;;5055364;28;20003;-79
2022/11/17 02:39:06;;;;;;;8.02;1.58;;;15.60;99.30;;;;;;5051239;28;20029;-79
2022/11/17 02:41:31;;;;;;;7.90;1.80;;;15.50;99.60;;;;;;5046705;28;20482;-78
2022/11/17 02:44:06;;;;;;;9.70;2.10;;;15.50;99.60;;;;;;5053705;28;20024;-79
2022/11/17 02:46:35;;;;;;;8.02;1.80;;;15.50;99.80;;;;;;5052959;28;20070;-77
2022/11/17 02:49:11;;;;;;;9.48;1.92;;;15.50;99.80;;;;;;5053979;28;20040;-78
2022/11/17 02:51:39;;;;;;;14.77;2.67;;;15.50;99.90;;;;;;5054093;28;20021;-78
2022/11/17 02:54:06;;;;;;;10.73;1.92;;;15.50;99.80;;;;;;5053754;28;20021;-79
2022/11/17 02:56:32;;;;;;;10.48;2.13;;;15.50;99.90;;;;;;5052354;28;20039;-78
2022/11/17 02:59:01;;;;;;;8.65;1.83;;;15.50;99.90;;;;;;5053568;28;20484;-78
2022/11/17 03:01:42;;;;;;;9.40;2.53;;;15.50;99.90;;;;;;5053990;28;20017;-77
2022/11/17 03:04:55;;;;;;;9.60;2.17;;;15.40;99.90;;;;;;5053688;28;20115;-77
2022/11/17 03:07:33;;;;;;;10.38;1.70;;;15.40;99.90;;;;;;5040680;28;20077;-79
2022/11/17 03:10:21;;;;;;;7.30;1.75;;;15.40;99.90;;;;;;5052550;28;20021;-77
2022/11/17 03:12:59;;;;;;;8.68;1.92;;;15.50;99.90;;;;;;5053622;28;20040;-77
2022/11/17 03:15:37;;;;;;;9.93;2.13;;;15.40;99.90;;;;;;5053518;28;20047;-79
2022/11/17 03:18:13;;;;;;;5.60;1.45;;;15.40;99.90;;;;;;5053617;28;20033;-78
2022/11/17 03:20:40;;;;;;;6.40;1.20;;;15.30;99.90;;;;;;5053540;28;20025;-76
2022/11/17 03:23:37;;;;;;;8.68;1.52;;;15.40;99.90;;;;;;5053553;28;20047;-77
2022/11/17 03:26:06;;;;;;;5.72;1.33;;;15.40;99.90;;;;;;5052310;28;20045;-78
2022/11/17 03:28:32;;;;;;;8.68;1.75;;;15.40;99.90;;;;;;5053405;28;20146;-77
2022/11/17 03:31:00;;;;;;;9.10;1.60;;;15.40;99.90;;;;;;5053408;28;20429;-79
2022/11/17 03:33:27;;;;;;;5.93;1.27;;;15.50;99.90;;;;;;5053425;28;20083;-78
2022/11/17 03:36:12;;;;;;;3.28;1.05;;;15.50;99.90;;;;;;5053157;28;20132;-78
2022/11/17 03:38:45;;;;;;;4.53;1.13;;;15.50;99.90;;;;;;5053548;28;20013;-78
2022/11/17 03:41:13;;;;;;;;;;;15.50;99.90;;;;;;5053431;28;20377;-79
2022/11/17 03:43:40;;;;;;;4.38;0.85;;;15.60;99.90;;;;;;5051967;28;20408;-78
2022/11/17 03:46:10;;;;;;;3.15;0.85;;;15.60;99.90;;;;;;5053131;28;20057;-79
2022/11/17 03:48:49;;;;;;;4.82;1.08;;;15.70;99.90;;;;;;5052771;28;20027;-78
2022/11/17 03:51:18;;;;;;;2.92;0.77;;;15.60;99.90;;;;;;5053712;28;20023;-78
2022/11/17 03:53:45;;;;;;;3.95;0.70;;;15.70;99.90;;;;;;5054194;28;20075;-78
2022/11/17 03:56:36;;;;;;;2.13;0.50;;;15.70;99.90;;;;;;5055618;28;20029;-76
2022/11/17 03:59:45;;;;;;;5.63;1.52;;;15.60;99.90;;;;;;5055066;28;20028;-78
2022/11/17 04:02:17;;;;;;;5.78;0.70;;;15.70;99.90;;;;;;4994091;28;20049;-79
2022/11/17 04:07:27;;;;;;;7.75;1.20;;;15.70;99.80;;;;;;5056006;28;20031;-77
2022/11/17 04:09:52;;;;;;;6.28;1.17;;;15.80;99.80;;;;;;5054810;28;20104;-77
2022/11/17 04:17:46;;;;;;;6.32;1.42;;;15.70;99.60;;;;;;5053216;28;20115;-76
2022/11/17 04:20:11;;;;;;;6.72;1.73;;;15.70;99.90;;;;;;5052952;28;20043;-76
2022/11/17 04:22:37;;;;;;;5.47;1.27;;;15.70;99.60;;;;;;5052986;28;20025;-76
2022/11/17 04:25:03;;;;;;;7.45;1.50;;;15.80;99.30;;;;;;5052460;28;20032;-76
2022/11/17 04:30:12;;;;;;;5.53;1.40;;;15.70;99.10;;;;;;5052829;28;20397;-76
2022/11/17 04:32:38;;;;;;;4.40;1.23;;;15.70;99.00;;;;;;5052506;28;20104;-76
2022/11/17 04:35:04;;;;;;;5.25;1.15;;;15.70;98.90;;;;;;5052612;28;20390;-79
2022/11/17 04:37:29;;;;;;;7.80;1.02;;;15.70;98.70;;;;;;5052603;28;20470;-76
2022/11/17 04:39:55;;;;;;;6.43;1.17;;;15.70;98.60;;;;;;5052415;28;20028;-74
2022/11/17 04:42:20;;;;;;;7.65;1.00;;;15.80;98.40;;;;;;5052591;28;20032;-75
2022/11/17 04:44:46;;;;;;;8.32;1.42;;;15.80;98.30;;;;;;5052447;28;20047;-76
2022/11/17 04:47:12;;;;;;;6.20;1.00;;;15.80;98.20;;;;;;5052757;28;20074;-76
2022/11/17 04:49:38;;;;;;;5.10;1.48;;;15.80;98.20;;;;;;5052442;28;20028;-77
2022/11/17 04:52:04;;;;;;;4.05;1.13;;;15.70;98.20;;;;;;5052224;28;20406;-76
2022/11/17 04:54:29;;;;;;;4.20;0.70;;;15.70;98.20;;;;;;5052275;28;20036;-75
2022/11/17 04:56:55;;;;;;;4.55;0.93;;;15.70;98.20;;;;;;5052350;28;20043;-76
2022/11/17 04:59:21;;;;;;;3.35;0.80;;;15.70;98.10;;;;;;5052372;28;20017;-76
2022/11/17 05:01:47;;;;;;;4.43;0.73;;;15.70;98.00;;;;;;5054963;28;20033;-75
2022/11/17 05:04:54;;;;;;;4.72;0.98;;;15.70;97.90;;;;;;5055867;28;20083;-76
2022/11/17 05:07:05;;;;;;;7.97;1.25;;;15.70;97.80;;;;;;5055997;28;20516;-76
2022/11/17 05:09:31;;;;;;;5.57;0.85;;;15.70;97.80;;;;;;5055964;28;20108;-76
2022/11/17 05:14:40;;;;;;;4.07;0.60;;;15.60;98.00;;;;;;5055857;28;20493;-76
2022/11/17 05:17:08;;;;;;;5.75;0.70;;;15.60;97.90;;;;;;5055932;28;20029;-76
2022/11/17 05:19:47;;;;;;;1.73;0.28;;;15.70;98.00;;;;;;5055830;28;20021;-76
2022/11/17 05:25:04;;;;;;;4.20;0.93;;;15.70;97.90;;;;;;5056104;28;20035;-79
2022/11/17 05:27:29;;;;;;;6.03;0.60;;;15.60;97.80;;;;;;5055672;28;20035;-78
2022/11/17 05:29:55;;;;;;;3.72;0.70;;;15.60;97.80;;;;;;5054457;28;20021;-77
2022/11/17 05:32:21;;;;;;;2.65;0.60;;;15.60;97.80;;;;;;5055599;28;20036;-78
2022/11/17 05:34:47;;;;;;;3.28;0.40;;;15.60;97.90;;;;;;5055334;28;20025;-78
2022/11/17 05:37:12;;;;;;;1.55;0.40;;;15.60;97.70;;;;;;5055156;28;20440;-79
2022/11/17 05:39:38;;;;;;;2.28;0.38;;;15.60;97.70;;;;;;5055801;28;20021;-78
2022/11/17 05:42:03;;;;;;;5.00;0.50;;;15.60;97.70;;;;;;5055323;28;20382;-76
2022/11/17 05:44:29;;;;;;;3.85;0.47;;;15.60;97.80;;;;;;5055537;28;20101;-76
2022/11/17 05:46:55;;;;;;;3.90;0.70;;;15.60;97.80;;;;;;5055365;28;20021;-76
2022/11/17 05:49:20;;;;;;;6.30;0.93;;;15.60;97.70;;;;;;5054693;28;20025;-76
2022/11/17 05:51:46;;;;;;;3.13;0.60;;;15.60;97.80;;;;;;5055422;28;20021;-76
2022/11/17 05:54:11;;;;;;;1.60;0.40;;;15.60;97.80;;;;;;5055772;28;20105;-79
2022/11/17 05:56:49;;;;;;;2.60;0.30;;;15.60;97.80;;;;;;5054403;28;20536;-78
2022/11/17 05:59:24;;;;;;;3.78;0.80;;;15.40;98.00;;;;;;5055610;28;20013;-79
2022/11/17 06:02:08;;;;;;;3.20;0.60;;;15.40;97.90;;;;;;5046469;28;20474;-77
2022/11/17 06:04:33;;;;;;;2.85;0.68;;;15.50;98.10;;;;;;5053546;28;20036;-79
2022/11/17 06:07:00;;;;;;;4.72;0.85;;;15.40;98.10;;;;;;5052937;28;20382;-81
2022/11/17 06:09:37;;;;;;;1.90;0.32;;;15.60;98.10;;;;;;5054125;28;20036;-80
2022/11/17 06:12:03;;;;;;;3.15;0.50;;;16.00;96.90;;;;;;5055008;28;20215;-79
2022/11/17 06:14:29;;;;;;;2.28;0.50;;;16.30;96.20;;;;;;5052772;28;20017;-78
2022/11/17 06:17:01;;;;;;;3.22;0.20;;;16.40;95.70;;;;;;5054695;28;20040;-77
2022/11/17 06:19:34;;;;;;;3.45;0.28;;;16.50;95.60;;;;;;5050300;28;20017;-77
2022/11/17 06:22:00;;;;;;;3.50;0.60;;;16.60;95.30;;;;;;5047788;28;20032;-75
2022/11/17 06:24:26;;;;;;;2.50;0.38;;;16.70;95.50;;;;;;5045986;28;20017;-75
2022/11/17 06:26:52;;;;;;;2.83;0.60;;;16.70;95.10;;;;;;5045061;28;20029;-78
2022/11/17 06:29:17;;;;;;;3.05;0.30;;;16.80;95.00;;;;;;5050230;28;20027;-82
2022/11/17 06:31:44;;;;;;;4.13;0.55;;;16.80;95.00;;;;;;5057320;28;20392;-79
2022/11/17 06:34:10;;;;;;;2.97;0.52;;;16.90;95.00;;;;;;5052092;28;20466;-81
2022/11/17 06:36:36;;;;;;;1.90;0.40;;;16.90;95.00;;;;;;5042539;28;20090;-76
2022/11/17 06:39:02;;;;;;;4.47;0.63;;;16.90;95.00;;;;;;5050811;28;20044;-78
2022/11/17 06:41:27;;;;;;;2.58;0.40;;;16.90;94.80;;;;;;5060132;28;20032;-81
2022/11/17 06:43:53;;;;;;;3.13;0.47;;;16.90;94.70;;;;;;5065844;28;20040;-81
2022/11/17 06:46:18;;;;;;;5.07;0.70;;;16.90;94.70;;;;;;5051226;28;20520;-82
2022/11/17 06:48:44;;;;;;;16.00;1.40;;;17.00;94.80;;;;;;5053058;28;20021;-79
2022/11/17 06:51:10;;;;;;;5.00;0.52;;;16.80;95.20;;;;;;5049992;28;20466;-80
2022/11/17 06:53:35;;;;;;;4.22;0.55;;;16.60;95.90;;;;;;5051463;28;20109;-79
2022/11/17 06:56:06;;;;;;;6.32;0.50;;;16.30;96.20;;;;;;5050587;28;20362;-77
2022/11/17 06:58:31;;;;;;;3.40;0.50;;;16.30;96.60;;;;;;5052376;28;20414;-76
2022/11/17 07:01:15;;;;;;;3.05;0.63;;;16.20;96.70;;;;;;5048681;28;20068;-79
2022/11/17 07:03:41;;;;;;;4.55;0.75;;;16.10;97.00;;;;;;5050570;28;20033;-77
2022/11/17 07:06:11;;;;;;;4.75;0.85;;;16.10;97.10;;;;;;5047608;28;20032;-79
2022/11/17 07:08:36;;;;;;;5.03;0.60;;;16.10;97.20;;;;;;5049527;28;20029;-79
2022/11/17 07:11:08;;;;;;;5.90;0.60;;;16.10;97.40;;;;;;5046312;28;20025;-78
2022/11/17 07:13:34;;;;;;;8.60;1.00;;;16.10;97.40;;;;;;5052438;28;20115;-78
2022/11/17 07:16:05;;;;;;;4.22;1.00;;;16.00;97.20;;;;;;5047876;28;20116;-78
2022/11/17 07:18:32;;;;;;;4.72;0.73;;;16.00;97.00;;;;;;5044918;28;20474;-80
2022/11/17 07:21:02;;;;;;;5.20;0.77;;;16.10;97.10;;;;;;5046075;28;20025;-75
2022/11/17 07:23:28;;;;;;;5.80;0.73;;;16.00;97.10;;;;;;5041564;28;20474;-78
2022/11/17 07:25:54;;;;;;;4.82;0.88;;;16.00;97.10;;;;;;5050839;28;20028;-79
2022/11/17 07:28:20;;;;;;;13.75;1.40;;;16.00;97.10;;;;;;5052817;28;20049;-80
2022/11/17 07:30:45;;;;;;;4.32;1.00;;;16.00;97.00;;;;;;5051815;28;20032;-78
2022/11/17 07:33:11;;;;;;;5.18;0.80;;;16.00;97.00;;;;;;5051866;28;20032;-80
2022/11/17 07:35:36;;;;;;;6.32;0.90;;;16.10;96.90;;;;;;5052335;28;20041;-80
2022/11/17 07:38:02;;;;;;;10.60;0.77;;;16.00;96.90;;;;;;5052017;28;20099;-80
2022/11/17 07:40:28;;;;;;;5.65;0.77;;;16.10;96.90;;;;;;5052888;28;20025;-79
2022/11/17 07:42:54;;;;;;;4.57;1.00;;;16.00;96.80;;;;;;5051970;28;20032;-76
2022/11/17 07:45:21;;;;;;;5.15;1.05;;;16.00;96.80;;;;;;5053193;28;20090;-81
2022/11/17 07:48:01;;;;;;;7.30;1.13;;;16.00;96.90;;;;;;5050864;28;20020;-81
2022/11/17 07:50:28;;;;;;;5.95;0.80;;;16.00;97.00;;;;;;5040258;28;20096;-82
2022/11/17 07:52:55;;;;;;;8.77;1.08;;;16.00;97.00;;;;;;5051656;28;20013;-78
2022/11/17 07:55:22;;;;;;;4.90;0.80;;;16.00;97.00;;;;;;5052310;28;20029;-77
2022/11/17 07:57:57;;;;;;;10.63;1.52;;;16.00;97.10;;;;;;5049129;28;20029;-80
2022/11/17 08:00:24;;;;;;;5.18;0.98;;;16.10;96.90;;;;;;5051551;28;20112;-80
2022/11/17 08:02:49;;;;;;;9.63;1.45;;;16.00;96.90;;;;;;5052024;28;20033;-79
2022/11/17 08:05:18;;;;;;;5.80;1.30;;;16.10;96.80;;;;;;5047770;28;20018;-79
2022/11/17 08:07:45;;;;;;;10.25;0.98;;;16.10;97.10;;;;;;5051317;28;20029;-79
2022/11/17 08:10:12;;;;;;;4.45;0.73;;;16.00;96.80;;;;;;5052748;28;20017;-76
2022/11/17 08:12:37;;;;;;;4.65;1.23;;;16.10;96.80;;;;;;5053961;28;20035;-75
2022/11/17 08:15:03;;;;;;;7.63;1.15;;;16.10;96.80;;;;;;5054702;28;20092;-75
2022/11/17 08:17:30;;;;;;;6.60;0.70;;;16.00;96.70;;;;;;5037912;28;20146;-76
2022/11/17 08:19:56;;;;;;;5.68;0.52;;;16.00;96.80;;;;;;5044719;28;20553;-75
2022/11/17 08:22:22;;;;;;;6.03;0.85;;;16.10;96.80;;;;;;5041833;28;20116;-75
2022/11/17 08:24:47;;;;;;;3.30;0.70;;;16.00;96.70;;;;;;5049327;28;20553;-74
2022/11/17 08:27:13;;;;;;;6.20;0.98;;;16.00;96.70;;;;;;5042531;28;20056;-75
2022/11/17 08:29:39;;;;;;;8.05;0.73;;;16.00;96.80;;;;;;5051332;28;20057;-76
2022/11/17 08:32:04;;;;;;;3.05;0.50;;;16.00;96.80;;;;;;5043900;28;20470;-75
2022/11/17 08:34:30;;;;;;;3.13;0.55;;;16.00;96.80;;;;;;5045109;28;20469;-75
2022/11/17 08:36:55;;;;;;;5.40;0.60;;;16.00;96.80;;;;;;5053373;28;20570;-75
2022/11/17 08:39:21;;;;;;;3.97;0.80;;;16.00;96.90;;;;;;5051381;28;20055;-75
2022/11/17 08:41:46;;;;;;;3.40;0.60;;;16.10;96.90;;;;;;5052583;28;20087;-76
2022/11/17 08:44:12;;;;;;;5.80;0.80;;;16.00;97.00;;;;;;5055337;28;20448;-76
2022/11/17 08:46:37;;;;;;;5.43;0.70;;;16.00;96.80;;;;;;5049741;28;20049;-75
2022/11/17 08:49:03;;;;;;;4.70;0.80;;;16.00;96.90;;;;;;5049033;28;20021;-75
2022/11/17 08:51:28;;;;;;;7.00;0.70;;;16.00;96.90;;;;;;5051009;28;20029;-75
2022/11/17 08:53:55;;;;;;;3.42;0.73;;;16.10;97.00;;;;;;5043279;28;20059;-78
2022/11/17 08:56:20;;;;;;;3.70;0.80;;;16.00;96.90;;;;;;5055101;28;20043;-76
2022/11/17 08:58:46;;;;;;;3.67;0.82;;;16.00;96.90;;;;;;5048446;28;20025;-76
2022/11/17 09:01:14;;;;;;;8.40;1.17;;;16.10;96.80;;;;;;5047296;28;20119;-75
2022/11/17 09:03:42;;;;;;;7.57;1.30;;;16.10;96.80;;;;;;5055697;28;20032;-75
2022/11/17 09:06:09;;;;;;;3.42;0.68;;;16.00;96.80;;;;;;5052644;28;20029;-74
2022/11/17 09:08:34;;;;;;;6.25;1.13;;;16.00;96.80;;;;;;5051972;28;20033;-78
2022/11/17 09:11:05;;;;;;;4.95;0.65;;;16.00;96.70;;;;;;5055125;28;20032;-77
2022/11/17 09:13:31;;;;;;;7.15;1.02;;;16.10;97.00;;;;;;5054198;28;20009;-77
2022/11/17 09:16:08;;;;;;;5.60;0.90;;;16.00;96.70;;;;;;5054295;28;20044;-77
2022/11/17 09:18:36;;;;;;;9.25;1.05;;;16.00;96.70;;;;;;5055384;28;20029;-76
2022/11/17 09:21:04;;;;;;;7.70;1.40;;;16.00;96.70;;;;;;5053711;28;20021;-77
2022/11/17 09:23:30;;;;;;;6.35;1.02;;;16.00;96.60;;;;;;5052516;28;20484;-77
2022/11/17 09:25:56;;;;;;;9.25;1.00;;;16.00;96.50;;;;;;5053682;28;20025;-80
2022/11/17 09:28:25;;;;;;;9.73;1.05;;;16.10;96.40;;;;;;5055142;28;20040;-79
2022/11/17 09:30:52;;;;;;;6.43;1.00;;;16.10;96.50;;;;;;5050261;28;20100;-76
2022/11/17 09:33:18;;;;;;;5.88;0.52;;;16.10;96.50;;;;;;5049231;28;20017;-80
2022/11/17 09:35:44;;;;;;;3.35;1.02;;;16.10;96.50;;;;;;5053220;28;20040;-80
2022/11/17 09:38:09;;;;;;;6.50;0.73;;;16.10;96.50;;;;;;5054477;28;20017;-81
2022/11/17 09:40:39;;;;;;;5.05;1.15;;;16.00;96.60;;;;;;5039702;28;20030;-80
2022/11/17 09:43:27;;;;;;;6.35;0.95;;;16.00;96.60;;;;;;5054674;28;20029;-81
2022/11/17 09:46:03;;;;;;;6.35;0.70;;;16.00;96.60;;;;;;5054573;28;20021;-81
2022/11/17 09:48:51;;;;;;;5.05;0.68;;;16.10;96.40;;;;;;5053118;28;20087;-81
2022/11/17 09:51:21;;;;;;;2.95;0.70;;;16.00;96.50;;;;;;5040847;28;20020;-81
2022/11/17 09:54:01;;;;;;;5.20;0.80;;;16.10;96.50;;;;;;5054397;28;20104;-80
2022/11/17 09:56:27;;;;;;;2.58;0.43;;;16.10;96.50;;;;;;5052815;28;20029;-76
2022/11/17 09:58:57;;;;;;;3.20;0.47;;;16.00;96.40;;;;;;5062635;28;20029;-80
2022/11/17 10:01:27;;;;;;;4.22;0.90;;;16.10;96.40;;;;;;5051547;28;20070;-77
2022/11/17 10:03:54;;;;;;;13.23;1.70;;;16.10;96.40;;;;;;5050347;28;20052;-77
2022/11/17 10:06:23;;;;;;;23.70;3.55;;;16.00;96.90;;;;;;5050953;28;20071;-77
2022/11/17 10:09:04;;;;;;;32.50;3.58;;;16.10;97.80;;;;;;5052282;28;20023;-76
2022/11/17 10:11:34;;;;;;;21.42;2.30;;;16.10;98.00;;;;;;5048572;28;20029;-81
2022/11/17 10:14:15;;;;;;;18.85;2.47;;;16.20;97.70;;;;;;5043504;28;20041;-81
2022/11/17 10:16:44;;;;;;;15.15;1.83;;;16.10;97.50;;;;;;5044412;28;20041;-79
2022/11/17 10:19:23;;;;;;;9.15;1.30;;;16.10;96.90;;;;;;5040840;28;20478;-79
2022/11/17 10:22:29;;;;;;;6.38;1.38;;;16.10;96.40;;;;;;5033827;28;20030;-77
2022/11/17 10:24:56;;;;;;;3.78;0.93;;;16.00;96.20;;;;;;5032950;28;20398;-79
2022/11/17 10:27:34;;;;;;;3.90;0.90;;;16.10;95.90;;;;;;5034903;28;20014;-78
2022/11/17 10:30:08;;;;;;;6.75;1.10;;;16.10;95.80;;;;;;5034349;28;20123;-79
2022/11/17 10:32:36;;;;;;;6.55;0.95;;;16.00;95.50;;;;;;5034414;28;20029;-79
2022/11/17 10:35:26;;;;;;;4.18;0.80;;;16.00;95.60;;;;;;5034540;28;20025;-77
2022/11/17 10:37:58;;;;;;;5.32;0.93;;;15.90;95.80;;;;;;5035071;28;20033;-79
2022/11/17 10:40:28;;;;;;;9.75;1.38;;;16.00;95.80;;;;;;5063971;28;20096;-80
2022/11/17 10:42:57;;;;;;;7.88;0.90;;;15.90;95.90;;;;;;5052235;28;20401;-79
2022/11/17 10:45:23;;;;;;;6.07;1.15;;;16.00;96.20;;;;;;5047083;28;20074;-78
2022/11/17 10:47:50;;;;;;;5.22;0.60;;;16.00;95.90;;;;;;5054102;28;20055;-77
2022/11/17 10:50:28;;;;;;;4.72;0.93;;;15.90;95.70;;;;;;5053582;28;20025;-78
2022/11/17 10:53:15;;;;;;;2.92;0.50;;;15.90;95.80;;;;;;5053797;28;20025;-78
2022/11/17 10:55:42;;;;;;;2.85;0.47;;;15.90;95.70;;;;;;5050980;28;20040;-77
2022/11/17 10:58:29;;;;;;;3.63;0.60;;;15.90;95.50;;;;;;5051203;28;20029;-79
2022/11/17 11:01:00;;;;;;;5.80;0.70;;;15.80;95.40;;;;;;5053058;28;20104;-74
2022/11/17 11:03:34;;;;;;;5.30;0.75;;;15.90;95.50;;;;;;5052203;28;20027;-79
2022/11/17 11:06:20;;;;;;;4.18;0.60;;;15.90;95.80;;;;;;5052975;28;20040;-77
2022/11/17 11:09:10;;;;;;;3.40;0.90;;;15.80;95.70;;;;;;5051577;28;20036;-78
2022/11/17 11:11:41;;;;;;;3.45;0.65;;;15.80;95.50;;;;;;5032771;28;20021;-81
2022/11/17 11:14:26;;;;;;;3.10;0.70;;;15.80;95.60;;;;;;5045094;28;20032;-78
2022/11/17 11:16:53;;;;;;;3.35;0.50;;;15.80;95.80;;;;;;5051811;28;20378;-78
2022/11/17 11:19:19;;;;;;;2.83;0.77;;;15.90;96.20;;;;;;5051684;28;20025;-75
2022/11/17 11:22:30;;;;;;;4.75;0.63;;;15.90;96.10;;;;;;5053373;28;20060;-77
2022/11/17 11:25:10;;;;;;;5.18;1.55;;;15.90;96.20;;;;;;5019613;28;20040;-79
2022/11/17 11:27:41;;;;;;;6.10;0.82;;;15.90;96.50;;;;;;5051417;28;20017;-77
2022/11/17 11:30:14;;;;;;;8.98;1.30;;;16.00;96.40;;;;;;5049969;28;20477;-76
2022/11/17 11:32:55;;;;;;;5.45;0.95;;;15.90;96.40;;;;;;5052976;28;20025;-79
2022/11/17 11:35:46;;;;;;;6.00;0.60;;;15.90;97.50;;;;;;5049447;28;20040;-77
2022/11/17 11:38:37;;;;;;;3.38;0.85;;;16.00;97.70;;;;;;5052586;28;20116;-77
2022/11/17 11:41:21;;;;;;;5.97;0.88;;;15.90;97.90;;;;;;5051804;28;20029;-80
2022/11/17 11:44:28;;;;;;;9.70;0.93;;;16.00;98.20;;;;;;5051139;28;20466;-77
2022/11/17 11:47:32;;;;;;;6.60;0.60;;;16.10;98.70;;;;;;5050032;28;20444;-77
2022/11/17 11:50:08;;;;;;;5.18;0.68;;;16.20;97.60;;;;;;5050209;28;20043;-77
2022/11/17 11:52:39;;;;;;;4.45;0.73;;;16.10;97.80;;;;;;5065020;28;20033;-80
2022/11/17 11:55:32;;;;;;;6.72;0.85;;;16.20;97.90;;;;;;5070602;28;20032;-78
2022/11/17 11:58:15;;;;;;;7.90;0.85;;;16.10;97.70;;;;;;5050193;28;20528;-78
2022/11/17 12:00:43;;;;;;;6.72;0.68;;;16.20;97.90;;;;;;5047018;28;20032;-77
2022/11/17 12:03:20;;;;;;;5.30;0.70;;;16.20;98.30;;;;;;5052284;28;20033;-79
2022/11/17 12:09:48;;;;;;;4.28;0.38;;;16.20;97.80;;;;;;5051779;28;20132;-76
2022/11/17 12:12:21;;;;;;;6.13;0.82;;;16.40;97.60;;;;;;5015396;28;20045;-75
2022/11/17 12:15:17;;;;;;;6.22;0.93;;;16.30;97.70;;;;;;5048152;28;20025;-74
2022/11/17 12:18:13;;;;;;;8.55;1.38;;;16.40;97.60;;;;;;5050616;28;20049;-78
2022/11/17 12:20:39;;;;;;;11.30;1.08;;;16.40;97.80;;;;;;5052897;28;20044;-75
2022/11/17 12:23:46;;;;;;;4.80;1.05;;;16.50;98.00;;;;;;5053846;28;20026;-75
2022/11/17 12:26:26;;;;;;;7.85;0.60;;;16.50;97.60;;;;;;5021021;28;20071;-79
2022/11/17 12:29:11;;;;;;;4.63;0.40;;;16.60;98.10;;;;;;5065986;28;20029;-75
2022/11/17 12:31:43;;;;;;;2.58;0.50;;;16.70;97.90;;;;;;5052042;28;20449;-77
2022/11/17 12:34:22;;;;;;;3.80;0.63;;;16.80;97.60;;;;;;5052282;28;20060;-77
2022/11/17 12:37:17;;;;;;;3.35;1.10;;;16.90;97.50;;;;;;5050494;28;20037;-80
2022/11/17 12:39:57;;;;;;;9.35;1.05;;;16.90;97.40;;;;;;5049602;28;20044;-74
2022/11/17 12:42:23;;;;;;;5.72;0.73;;;16.80;97.00;;;;;;5051807;28;20359;-76
2022/11/17 12:44:55;;;;;;;3.95;0.70;;;16.90;96.90;;;;;;5050413;28;20017;-78
2022/11/17 12:47:29;;;;;;;6.90;0.90;;;16.90;96.70;;;;;;5051220;28;20541;-75
2022/11/17 12:50:19;;;;;;;14.05;1.20;;;16.90;97.00;;;;;;5051444;28;20112;-79
2022/11/17 12:53:02;;;;;;;13.15;1.33;;;16.90;96.90;;;;;;5051486;28;20060;-76
2022/11/17 12:55:37;;;;;;;6.38;1.20;;;17.00;96.90;;;;;;5049046;28;20037;-77
2022/11/17 12:58:22;;;;;;;5.63;0.95;;;16.90;96.40;;;;;;5049389;28;20118;-80
2022/11/17 13:01:25;;;;;;;3.75;0.60;;;17.00;96.30;;;;;;5057347;28;20028;-79
2022/11/17 13:03:57;;;;;;;;;;;17.00;95.70;;;;;;5033158;28;20089;-78
2022/11/17 13:06:22;;;;;;;7.57;0.73;;;17.20;95.30;;;;;;5050731;28;19913;-77
2022/11/17 13:08:56;;;;;;;7.07;0.90;;;17.10;95.40;;;;;;5051113;28;20025;-78
2022/11/17 13:11:22;;;;;;;5.28;0.57;;;17.10;95.50;;;;;;5051505;28;20029;-80
2022/11/17 13:13:47;;;;;;;5.45;0.60;;;17.10;95.40;;;;;;5050669;28;20025;-80
2022/11/17 13:16:19;;;;;;;2.88;1.00;;;17.00;95.40;;;;;;5067805;28;20029;-79
2022/11/17 13:18:46;;;;;;;4.77;1.03;;;17.20;95.20;;;;;;5050976;28;20130;-76
2022/11/17 13:21:31;;;;;;;14.93;1.17;;;17.20;95.70;;;;;;5050463;28;20497;-78
2022/11/17 13:23:59;;;;;;;29.52;2.75;;;17.20;96.80;;;;;;5056157;28;20107;-79
2022/11/17 13:26:25;;;;;;;16.25;1.60;;;17.20;96.60;;;;;;5056115;28;20079;-79
2022/11/17 13:29:06;;;;;;;15.20;1.42;;;17.30;97.20;;;;;;5055193;28;20040;-74
2022/11/17 13:31:32;;;;;;;14.15;1.23;;;17.40;96.10;;;;;;5055701;28;20017;-77
2022/11/17 13:34:21;;;;;;;9.07;0.93;;;17.40;96.20;;;;;;5055493;28;20037;-80
2022/11/17 13:36:55;;;;;;;9.00;1.15;;;17.60;96.70;;;;;;5055416;28;20224;-80